Time;durP1;ratioP1;P1;durP2;ratioP2;P2;SDS_P1;SDS_P2;PMS_P1;PMS_P2;Temp;Humidity;BMP_temperature;BMP_pressure;BME280_temperature;BME280_humidity;BME280_pressure;Samples;Min_cycle;Max_cycle;Signal;HPM_P1;HPM_P2
2022/08/23 00:01:45;;;;;;;19.13;15.38;;;;;;;20.02;100.00;99846.34;5107050;27;20036;-66
2022/08/23 00:04:23;;;;;;;17.42;15.43;;;;;;;20.01;100.00;99841.97;5106361;28;20031;-65
2022/08/23 00:06:50;;;;;;;18.17;15.05;;;;;;;20.06;100.00;99851.19;5106001;28;20031;-65
2022/08/23 00:09:18;;;;;;;17.95;15.80;;;;;;;20.04;100.00;99847.84;5105712;28;20074;-66
2022/08/23 00:11:53;;;;;;;18.40;16.15;;;;;;;20.06;100.00;99856.63;5105270;28;20058;-65
2022/08/23 00:14:28;;;;;;;19.17;15.07;;;;;;;20.07;100.00;99858.31;5106162;28;20497;-65
2022/08/23 00:16:55;;;;;;;16.70;14.77;;;;;;;20.05;100.00;99846.78;5106194;28;20031;-66
2022/08/23 00:19:22;;;;;;;17.20;15.40;;;;;;;20.04;100.00;99856.00;5106654;27;20035;-65
2022/08/23 00:21:49;;;;;;;19.33;15.30;;;;;;;20.01;100.00;99850.97;5106603;27;20023;-65
2022/08/23 00:24:17;;;;;;;21.73;16.27;;;;;;;20.01;100.00;99847.41;5106576;27;20087;-66
2022/08/23 00:27:00;;;;;;;16.83;14.98;;;;;;;20.01;100.00;99850.97;5106126;27;20039;-65
2022/08/23 00:29:31;;;;;;;19.23;16.23;;;;;;;19.99;100.00;99844.03;5106506;28;20024;-66
2022/08/23 00:31:57;;;;;;;17.15;15.27;;;;;;;19.98;100.00;99843.22;5108582;27;20588;-66
2022/08/23 00:34:23;;;;;;;16.75;14.93;;;;;;;20.01;100.00;99850.97;5105902;28;20032;-66
2022/08/23 00:36:49;;;;;;;18.00;15.48;;;;;;;19.98;100.00;99854.13;5105300;28;20027;-66
2022/08/23 00:39:16;;;;;;;18.00;14.48;;;;;;;19.97;100.00;99855.16;5103908;28;20530;-66
2022/08/23 00:41:43;;;;;;;17.13;14.68;;;;;;;19.98;100.00;99859.56;5106122;28;20099;-66
2022/08/23 00:50:08;;;;;;;17.58;14.48;;;;;;;20.00;100.00;99875.69;5109522;28;20034;-65
2022/08/23 00:52:44;;;;;;;17.20;15.23;;;;;;;19.94;100.00;99868.34;5106280;28;20064;-65
2022/08/23 00:55:10;;;;;;;16.77;14.98;;;;;;;19.97;100.00;99871.50;5116585;28;20020;-65
2022/08/23 00:57:36;;;;;;;18.08;16.15;;;;;;;19.98;100.00;99889.50;5110313;28;20040;-65
2022/08/23 01:00:05;;;;;;;18.60;15.25;;;;;;;19.97;100.00;99892.44;5105224;28;20106;-65
2022/08/23 01:02:31;;;;;;;18.95;15.57;;;;;;;19.98;100.00;99894.09;5104570;28;20065;-65
2022/08/23 01:04:58;;;;;;;19.20;15.57;;;;;;;19.96;100.00;99890.75;5108975;28;20090;-65
2022/08/23 01:07:48;;;;;;;19.38;15.52;;;;;;;19.96;100.00;99886.13;5107645;28;20028;-65
2022/08/23 01:10:31;;;;;;;16.77;14.13;;;;;;;20.00;100.00;99887.41;5104304;28;20016;-66
2022/08/23 01:13:05;;;;;;;16.45;14.75;;;;;;;19.99;100.00;99884.88;5105477;28;20399;-65
2022/08/23 01:16:00;;;;;;;17.83;15.60;;;;;;;19.96;100.00;99891.56;5105372;28;20467;-65
2022/08/23 01:18:27;;;;;;;17.58;13.80;;;;;;;19.95;100.00;99880.88;5132888;27;20391;-65
2022/08/23 01:21:09;;;;;;;19.27;15.55;;;;;;;19.94;100.00;99896.41;5103382;28;20020;-65
2022/08/23 01:23:39;;;;;;;16.30;13.80;;;;;;;19.90;100.00;99892.41;5106861;28;20440;-66
2022/08/23 01:26:06;;;;;;;15.40;13.77;;;;;;;19.88;100.00;99913.56;5105612;27;20031;-66
2022/08/23 01:28:32;;;;;;;15.48;13.82;;;;;;;19.87;100.00;99900.16;5104860;28;20483;-66
2022/08/23 01:30:58;;;;;;;17.17;14.07;;;;;;;19.87;100.00;99892.81;5103972;28;20027;-66
2022/08/23 01:33:24;;;;;;;16.67;14.90;;;;;;;19.93;100.00;99896.59;5105417;28;20031;-66
2022/08/23 01:35:57;;;;;;;16.70;14.80;;;;;;;19.93;100.00;99902.88;5103576;28;20081;-66
2022/08/23 01:38:23;;;;;;;17.98;13.52;;;;;;;19.92;100.00;99898.47;5105598;28;20474;-66
2022/08/23 01:40:50;;;;;;;16.52;14.10;;;;;;;19.93;100.00;99911.03;5104102;28;20020;-65
2022/08/23 01:43:18;;;;;;;16.20;14.10;;;;;;;19.87;100.00;99886.53;5104140;28;20039;-66
2022/08/23 01:45:45;;;;;;;15.65;13.27;;;;;;;19.92;100.00;99900.34;5104677;28;20103;-65
2022/08/23 01:48:11;;;;;;;15.70;13.38;;;;;;;19.94;100.00;99910.03;5110470;28;20049;-65
2022/08/23 01:50:37;;;;;;;15.45;13.85;;;;;;;19.88;100.00;99905.38;5110309;28;20032;-65
2022/08/23 01:53:03;;;;;;;15.68;13.93;;;;;;;19.95;100.00;99910.84;5103872;28;20047;-65
2022/08/23 01:55:28;;;;;;;14.00;12.45;;;;;;;19.91;100.00;99909.56;5105472;28;20032;-65
2022/08/23 01:57:57;;;;;;;14.35;12.60;;;;;;;19.88;100.00;99907.25;5105404;28;20683;-66
2022/08/23 02:00:29;;;;;;;15.25;13.68;;;;;;;19.93;100.00;99918.38;5105342;28;20072;-65
2022/08/23 02:02:54;;;;;;;14.75;13.13;;;;;;;19.88;100.00;99918.16;5105029;28;20074;-65
2022/08/23 02:05:20;;;;;;;16.05;14.45;;;;;;;19.85;100.00;99915.84;5108368;28;20064;-65
2022/08/23 02:07:46;;;;;;;16.55;13.95;;;;;;;19.86;100.00;99917.50;5108819;28;20012;-65
2022/08/23 02:10:11;;;;;;;12.77;11.48;;;;;;;19.85;100.00;99924.84;5108491;28;20023;-65
2022/08/23 02:12:37;;;;;;;14.27;12.80;;;;;;;19.84;100.00;99925.91;5109352;28;20031;-66
2022/08/23 02:15:07;;;;;;;16.15;13.93;;;;;;;19.79;100.00;99927.53;5112430;28;20034;-65
2022/08/23 02:17:33;;;;;;;17.08;13.43;;;;;;;19.73;100.00;99920.16;5126351;28;20037;-65
2022/08/23 02:20:01;;;;;;;15.10;13.50;;;;;;;19.75;100.00;99927.13;5109836;28;20028;-65
2022/08/23 02:22:27;;;;;;;16.85;14.75;;;;;;;19.72;100.00;99932.09;5108712;28;20548;-65
2022/08/23 02:24:53;;;;;;;16.58;13.50;;;;;;;19.68;100.00;99915.38;5108427;28;20044;-65
2022/08/23 02:27:19;;;;;;;15.98;13.50;;;;;;;19.71;100.00;99925.84;5108089;28;20043;-65
2022/08/23 02:29:46;;;;;;;16.63;14.95;;;;;;;19.72;100.00;99938.41;5107587;28;20012;-65
2022/08/23 02:32:15;;;;;;;17.27;14.13;;;;;;;19.74;100.00;99936.28;5106528;28;20023;-65
2022/08/23 02:34:41;;;;;;;18.50;15.65;;;;;;;19.68;100.00;99942.56;5108166;28;20027;-65
2022/08/23 02:37:10;;;;;;;15.15;13.65;;;;;;;19.72;100.00;99946.56;5108450;28;20534;-65
2022/08/23 02:39:36;;;;;;;16.05;14.35;;;;;;;19.68;100.00;99939.84;5107690;28;20634;-65
2022/08/23 02:42:02;;;;;;;16.60;14.80;;;;;;;19.70;100.00;99950.53;5108110;28;20167;-65
2022/08/23 02:44:27;;;;;;;18.88;15.75;;;;;;;19.67;100.00;99946.31;5107896;28;20114;-65
2022/08/23 02:46:53;;;;;;;16.10;14.40;;;;;;;19.67;100.00;99942.78;5107771;28;20024;-65
2022/08/23 02:49:20;;;;;;;16.02;14.27;;;;;;;19.70;100.00;99951.34;5108616;28;20076;-65
2022/08/23 02:51:46;;;;;;;17.25;15.00;;;;;;;19.68;100.00;99955.31;5107887;28;20699;-66
2022/08/23 02:54:12;;;;;;;17.17;15.35;;;;;;;19.71;100.00;99950.34;5108190;28;20054;-65
2022/08/23 02:56:37;;;;;;;17.52;15.70;;;;;;;19.63;100.00;99939.59;5108125;28;20531;-65
2022/08/23 02:59:05;;;;;;;17.67;15.82;;;;;;;19.68;100.00;99961.63;5107620;28;20042;-65
2022/08/23 03:01:34;;;;;;;17.08;15.30;;;;;;;19.67;100.00;99949.03;5110472;27;20030;-65
2022/08/23 03:03:59;;;;;;;15.98;14.38;;;;;;;19.62;100.00;99948.81;5107918;28;20050;-65
2022/08/23 03:06:25;;;;;;;18.00;15.90;;;;;;;19.63;100.00;99955.94;5106516;28;20372;-65
2022/08/23 03:08:51;;;;;;;18.15;15.38;;;;;;;19.58;100.00;99955.69;5106323;28;20027;-65
2022/08/23 03:11:22;;;;;;;16.67;14.85;;;;;;;19.60;100.00;99950.03;5107942;28;20023;-65
2022/08/23 03:13:49;;;;;;;15.15;13.57;;;;;;;19.59;100.00;99949.22;5108762;27;20667;-65
2022/08/23 03:16:16;;;;;;;19.63;14.55;;;;;;;19.61;100.00;99949.03;5110035;27;20023;-65
2022/08/23 03:18:42;;;;;;;20.42;16.80;;;;;;;19.58;100.00;99952.97;5108208;27;20814;-65
2022/08/23 03:21:08;;;;;;;18.48;16.48;;;;;;;19.58;100.00;99949.41;5111160;27;20026;-65
2022/08/23 03:23:35;;;;;;;20.25;16.80;;;;;;;19.58;100.00;99952.97;5109433;27;21628;-65
2022/08/23 03:26:03;;;;;;;22.40;16.75;;;;;;;19.55;100.00;99953.38;5107589;27;20059;-65
2022/08/23 03:28:29;;;;;;;19.58;16.63;;;;;;;19.53;100.00;99946.44;5108013;27;20040;-65
2022/08/23 03:30:55;;;;;;;21.63;16.02;;;;;;;19.52;100.00;99951.06;5109014;27;20027;-67
2022/08/23 03:33:21;;;;;;;17.75;15.65;;;;;;;19.52;100.00;99958.38;5105715;28;20019;-64
2022/08/23 03:35:47;;;;;;;17.95;15.88;;;;;;;19.50;100.00;99964.03;5108493;27;20050;-65
2022/08/23 03:38:13;;;;;;;20.23;16.60;;;;;;;19.51;100.00;99973.03;5108403;27;20053;-65
2022/08/23 03:40:39;;;;;;;22.08;17.67;;;;;;;19.47;100.00;99967.13;5108164;27;20047;-65
2022/08/23 03:43:05;;;;;;;20.55;17.23;;;;;;;19.53;100.00;99976.38;5106525;28;20127;-65
2022/08/23 03:45:30;;;;;;;18.65;15.23;;;;;;;19.58;100.00;99969.28;5109526;27;20030;-65
2022/08/23 03:47:56;;;;;;;20.38;16.67;;;;;;;19.56;100.00;99965.09;5108645;27;20104;-65
2022/08/23 03:50:22;;;;;;;17.65;15.77;;;;;;;19.53;100.00;99960.91;5106291;28;20100;-65
2022/08/23 03:52:48;;;;;;;19.85;15.95;;;;;;;19.53;100.00;99965.50;5108275;28;20031;-65
2022/08/23 03:55:14;;;;;;;19.30;15.93;;;;;;;19.47;100.00;99960.84;5108045;28;20034;-65
2022/08/23 03:57:40;;;;;;;17.38;15.40;;;;;;;19.51;100.00;99973.03;5122397;27;20023;-65
2022/08/23 04:00:08;;;;;;;17.55;14.68;;;;;;;19.52;100.00;99972.84;5128549;27;20020;-66
2022/08/23 04:02:34;;;;;;;18.88;14.88;;;;;;;19.44;100.00;99969.44;5110139;27;20036;-64
2022/08/23 04:05:00;;;;;;;15.90;13.75;;;;;;;19.50;100.00;99982.22;5108646;28;20011;-64
2022/08/23 04:07:26;;;;;;;16.63;14.02;;;;;;;19.49;100.00;99984.13;5108632;28;20024;-64
2022/08/23 04:09:52;;;;;;;15.02;13.43;;;;;;;19.51;100.00;99983.91;5107965;28;20069;-64
2022/08/23 04:12:17;;;;;;;16.33;14.60;;;;;;;19.49;100.00;99981.38;5110212;27;20533;-64
2022/08/23 04:14:44;;;;;;;16.35;13.68;;;;;;;19.55;100.00;99988.75;5126167;27;20035;-65
2022/08/23 04:17:11;;;;;;;16.15;13.70;;;;;;;19.54;100.00;99995.22;5128571;27;20035;-64
2022/08/23 04:19:36;;;;;;;17.58;14.25;;;;;;;19.53;100.00;99995.41;5127587;27;20026;-64
2022/08/23 04:22:02;;;;;;;20.20;15.70;;;;;;;19.49;100.00;100007.75;5128856;27;20035;-64
2022/08/23 04:24:28;;;;;;;18.02;14.73;;;;;;;19.47;100.00;100004.38;5109398;27;20028;-64
2022/08/23 04:26:54;;;;;;;19.33;14.15;;;;;;;19.50;100.00;100009.41;5105045;28;20027;-65
2022/08/23 04:29:21;;;;;;;22.25;16.23;;;;;;;19.42;100.00;99990.53;5107784;27;20026;-65
2022/08/23 04:31:47;;;;;;;16.08;14.38;;;;;;;19.50;100.00;100003.97;5127669;27;20118;-66
2022/08/23 04:34:15;;;;;;;18.98;15.38;;;;;;;19.50;100.00;100010.28;5116637;27;20491;-65
2022/08/23 04:36:42;;;;;;;19.85;15.15;;;;;;;19.54;100.00;100008.81;5122739;27;20035;-65
2022/08/23 04:39:08;;;;;;;17.00;15.18;;;;;;;19.52;100.00;100005.47;5128590;27;20054;-65
2022/08/23 04:44:39;;;;;;;21.17;17.20;;;;;;;19.54;100.00;100010.72;5037123;28;20078;-65
2022/08/23 04:47:05;;;;;;;19.67;16.05;;;;;;;19.48;100.00;100015.06;5028507;28;20294;-66
2022/08/23 04:49:32;;;;;;;19.25;16.35;;;;;;;19.54;100.00;100024.31;5064303;28;20050;-65
2022/08/23 04:51:57;;;;;;;18.73;15.52;;;;;;;19.55;100.00;100032.28;5107058;28;20059;-66
2022/08/23 04:54:23;;;;;;;21.95;16.55;;;;;;;19.54;100.00;100025.16;5106116;28;20131;-66
2022/08/23 04:56:48;;;;;;;23.60;17.92;;;;;;;19.60;100.00;100037.09;5104610;28;20031;-66
2022/08/23 04:59:14;;;;;;;20.05;15.73;;;;;;;19.65;100.00;100048.25;5107437;28;20467;-65
2022/08/23 05:01:41;;;;;;;20.80;15.70;;;;;;;19.66;100.00;100053.50;5107253;28;20028;-66
2022/08/23 05:04:07;;;;;;;21.08;16.50;;;;;;;19.66;100.00;100058.94;5105002;28;20488;-65
2022/08/23 05:06:33;;;;;;;20.40;15.80;;;;;;;19.69;100.00;100057.69;5105557;28;20054;-65
2022/08/23 05:09:00;;;;;;;17.65;14.77;;;;;;;19.72;100.00;100071.75;5105466;28;20051;-65
2022/08/23 05:11:27;;;;;;;20.60;15.32;;;;;;;19.73;100.00;100067.97;5106266;28;20492;-65
2022/08/23 05:13:53;;;;;;;16.92;14.43;;;;;;;19.78;100.00;100059.22;5105013;28;20073;-64
2022/08/23 05:16:19;;;;;;;15.55;13.15;;;;;;;19.83;100.00;100070.38;5105625;28;20108;-65
2022/08/23 05:18:45;;;;;;;17.13;14.13;;;;;;;19.83;100.00;100067.63;5105476;28;20035;-66
2022/08/23 05:21:19;;;;;;;18.13;14.63;;;;;;;19.82;100.00;100069.50;5110500;28;20079;-65
2022/08/23 05:23:45;;;;;;;19.40;15.55;;;;;;;19.84;100.00;100063.88;5127600;27;20038;-66
2022/08/23 05:26:11;;;;;;;18.58;15.48;;;;;;;19.85;100.00;100060.09;5126254;28;20477;-65
2022/08/23 05:28:40;;;;;;;16.60;14.10;;;;;;;19.86;100.00;100059.03;5119813;28;20852;-66
2022/08/23 05:31:09;;;;;;;17.92;14.45;;;;;;;19.87;100.00;100056.13;5106195;28;20030;-66
2022/08/23 05:33:35;;;;;;;17.60;13.90;;;;;;;19.91;100.00;100059.28;5107124;28;20174;-65
2022/08/23 05:36:01;;;;;;;17.10;15.25;;;;;;;19.89;100.00;100061.38;5107400;28;20098;-66
2022/08/23 05:38:27;;;;;;;17.70;14.25;;;;;;;19.97;100.00;100074.84;5110537;28;20525;-65
2022/08/23 05:40:56;;;;;;;19.48;15.30;;;;;;;20.00;100.00;100077.97;5109821;28;20028;-65
2022/08/23 05:43:22;;;;;;;18.38;15.85;;;;;;;20.00;100.00;100071.72;5111990;28;20019;-65
2022/08/23 05:46:28;;;;;;;20.45;15.05;;;;;;;20.02;100.00;100065.00;5111067;28;20028;-65
2022/08/23 05:48:53;;;;;;;17.50;15.07;;;;;;;20.04;100.00;100075.69;5095862;28;20047;-65
2022/08/23 05:51:23;;;;;;;17.60;14.45;;;;;;;20.06;100.00;100073.63;5110650;27;20039;-65
2022/08/23 05:53:51;;;;;;;18.73;14.63;;;;;;;20.00;100.00;100071.72;5110432;28;20051;-65
2022/08/23 05:56:21;;;;;;;17.02;14.07;;;;;;;20.06;100.00;100081.81;5108404;28;20028;-65
2022/08/23 05:58:49;;;;;;;18.58;14.23;;;;;;;20.05;100.00;100080.94;5111462;27;20734;-64
2022/08/23 06:01:16;;;;;;;17.13;13.85;;;;;;;20.05;100.00;100085.53;5118167;27;20046;-65
2022/08/23 06:03:41;;;;;;;16.55;13.68;;;;;;;20.04;100.00;100094.75;5109504;28;20040;-65
2022/08/23 06:06:07;;;;;;;19.15;15.35;;;;;;;20.08;100.00;100096.03;5107608;28;20063;-66
2022/08/23 06:08:35;;;;;;;19.65;14.68;;;;;;;20.10;100.00;100096.69;5109141;28;20023;-66
2022/08/23 06:11:03;;;;;;;19.58;15.30;;;;;;;20.05;100.00;100086.41;5110130;28;20043;-65
2022/08/23 06:13:29;;;;;;;15.93;14.23;;;;;;;20.08;100.00;100079.69;5119406;27;20035;-65
2022/08/23 06:15:56;;;;;;;17.73;14.15;;;;;;;20.07;100.00;100081.59;5129725;27;20035;-65
2022/08/23 06:18:22;;;;;;;18.35;13.60;;;;;;;20.12;100.00;100092.75;5112869;27;20482;-66
2022/08/23 06:20:47;;;;;;;16.50;12.60;;;;;;;20.14;100.00;100087.94;5129559;27;20055;-65
2022/08/23 06:23:13;;;;;;;16.77;14.18;;;;;;;20.15;100.00;100092.34;5130279;27;20019;-65
2022/08/23 06:25:39;;;;;;;17.27;14.02;;;;;;;20.14;100.00;100085.22;5128342;27;20576;-65
2022/08/23 06:28:05;;;;;;;15.50;13.13;;;;;;;20.13;100.00;100088.97;5130533;27;20644;-65
2022/08/23 06:30:30;;;;;;;16.92;13.40;;;;;;;20.17;100.00;100081.25;5130543;27;20027;-65
2022/08/23 06:32:56;;;;;;;15.50;12.63;;;;;;;20.21;100.00;100087.97;5128655;27;20065;-65
2022/08/23 06:35:22;;;;;;;14.82;13.13;;;;;;;20.21;100.00;100077.06;5113296;27;20046;-65
2022/08/23 06:37:48;;;;;;;17.88;14.65;;;;;;;20.28;100.00;100079.84;5109585;27;20471;-65
2022/08/23 06:40:13;;;;;;;15.23;12.90;;;;;;;20.32;100.00;100086.56;5109977;28;20035;-65
2022/08/23 06:42:39;;;;;;;18.08;13.85;;;;;;;20.37;100.00;100087.63;5109281;28;20028;-65
2022/08/23 06:45:05;;;;;;;16.80;14.18;;;;;;;20.40;100.00;100095.41;5109963;28;20030;-65
2022/08/23 06:47:30;;;;;;;15.75;11.93;;;;;;;20.46;100.00;100091.00;5109726;28;20114;-65
2022/08/23 06:49:56;;;;;;;17.65;14.00;;;;;;;20.46;100.00;100091.00;5121657;27;20173;-66
2022/08/23 06:52:21;;;;;;;14.48;11.93;;;;;;;20.45;100.00;100086.63;5130233;27;20027;-65
2022/08/23 06:54:47;;;;;;;16.17;14.13;;;;;;;20.52;100.00;100091.06;5129569;27;20530;-66
2022/08/23 06:57:13;;;;;;;15.10;12.20;;;;;;;20.49;100.00;100087.88;5130207;27;20041;-65
2022/08/23 06:59:39;;;;;;;17.85;14.32;;;;;;;20.59;100.00;100093.78;5129644;27;20413;-65
2022/08/23 07:02:07;;;;;;;15.48;11.40;;;;;;;20.62;100.00;100093.38;5130103;27;20100;-65
2022/08/23 07:04:37;;;;;;;14.85;11.18;;;;;;;20.66;100.00;100097.41;5114637;27;20619;-65
2022/08/23 07:07:04;;;;;;;11.63;10.32;;;;;;;20.61;100.00;100084.38;5109162;28;20027;-64
2022/08/23 07:09:31;;;;;;;12.25;10.93;;;;;;;20.67;100.00;100091.72;5109158;28;20061;-65
2022/08/23 07:11:57;;;;;;;12.40;10.60;;;;;;;20.82;100.00;100097.00;5108457;28;20782;-65
2022/08/23 07:14:24;;;;;;;13.80;11.00;;;;;;;20.95;100.00;100113.44;5108907;28;20034;-63
2022/08/23 07:16:56;;;;;;;14.80;10.95;;;;;;;21.00;100.00;100100.88;5108454;28;20023;-65
2022/08/23 07:19:26;;;;;;;12.52;10.75;;;;;;;21.20;99.81;100109.94;5109455;28;20118;-66
2022/08/23 07:21:52;;;;;;;12.57;10.02;;;;;;;21.32;98.87;100107.41;5108099;28;20032;-65
2022/08/23 07:24:18;;;;;;;12.32;10.02;;;;;;;21.45;97.63;100101.97;5109317;28;20039;-65
2022/08/23 07:26:45;;;;;;;10.98;9.43;;;;;;;21.59;96.20;100115.41;5108612;28;20037;-65
2022/08/23 07:29:12;;;;;;;11.75;9.77;;;;;;;21.66;95.40;100120.84;5108689;28;20076;-65
2022/08/23 07:31:58;;;;;;;10.52;8.98;;;;;;;21.74;95.48;100121.50;5108873;28;20055;-65
2022/08/23 07:34:25;;;;;;;12.73;10.68;;;;;;;21.85;94.25;100130.94;5108404;27;20056;-65
2022/08/23 07:36:51;;;;;;;12.45;10.68;;;;;;;21.91;93.90;100133.69;5108400;27;20077;-65
2022/08/23 07:39:18;;;;;;;13.57;10.25;;;;;;;21.98;93.81;100137.25;5108503;27;20418;-65
2022/08/23 07:41:45;;;;;;;11.75;9.95;;;;;;;22.04;93.79;100143.75;5108839;28;20058;-66
2022/08/23 07:44:12;;;;;;;12.05;9.68;;;;;;;22.09;93.33;100141.22;5107122;28;20107;-65
2022/08/23 07:46:41;;;;;;;12.82;9.55;;;;;;;22.12;92.78;100138.91;5116924;27;20390;-65
2022/08/23 07:49:08;;;;;;;11.60;9.45;;;;;;;22.19;91.97;100141.63;5120623;27;20035;-66
2022/08/23 07:51:35;;;;;;;10.52;9.00;;;;;;;22.24;91.56;100147.28;5107500;28;20031;-65
2022/08/23 07:54:06;;;;;;;12.90;9.68;;;;;;;22.31;91.50;100154.41;5108407;28;20039;-65
2022/08/23 07:56:34;;;;;;;14.52;11.05;;;;;;;22.28;89.64;100151.28;5108917;27;20028;-66
2022/08/23 07:59:00;;;;;;;13.50;10.65;;;;;;;22.33;89.85;100157.78;5108093;28;20526;-65
2022/08/23 08:01:28;;;;;;;12.13;9.85;;;;;;;22.37;89.60;100147.25;5107301;28;20043;-65
2022/08/23 08:03:56;;;;;;;11.35;9.95;;;;;;;22.41;89.10;100155.88;5107804;28;20038;-65
2022/08/23 08:06:46;;;;;;;12.57;10.85;;;;;;;22.42;88.65;100152.91;5108424;28;20032;-66
2022/08/23 08:09:14;;;;;;;10.70;9.57;;;;;;;22.49;89.13;100145.56;5107875;28;20023;-65
2022/08/23 08:11:42;;;;;;;9.38;8.38;;;;;;;22.60;89.18;100152.25;5107008;27;20027;-66
2022/08/23 08:14:08;;;;;;;11.68;9.43;;;;;;;22.69;88.06;100148.25;5107910;28;20031;-65
2022/08/23 08:16:46;;;;;;;10.32;9.23;;;;;;;22.83;86.99;100145.19;5124458;27;20035;-66
2022/08/23 08:19:14;;;;;;;11.05;9.95;;;;;;;22.94;85.69;100162.81;5126674;27;20031;-66
2022/08/23 08:21:40;;;;;;;12.23;11.00;;;;;;;23.03;85.46;100156.91;5109587;27;20360;-66
2022/08/23 08:24:09;;;;;;;10.88;9.50;;;;;;;23.21;84.83;100162.47;5107951;28;20106;-66
2022/08/23 08:26:35;;;;;;;8.85;7.95;;;;;;;23.35;84.81;100152.31;5106195;28;20024;-66
2022/08/23 08:29:01;;;;;;;12.45;10.80;;;;;;;23.50;82.26;100156.41;5105553;28;20024;-66
2022/08/23 08:31:27;;;;;;;9.60;8.60;;;;;;;23.66;80.13;100160.47;5108181;28;20092;-66
2022/08/23 08:33:53;;;;;;;11.00;9.40;;;;;;;23.77;79.71;100170.75;5107725;28;21113;-66
2022/08/23 08:36:39;;;;;;;10.52;9.45;;;;;;;23.89;79.80;100158.81;5108140;28;20122;-66
2022/08/23 08:39:07;;;;;;;12.05;9.82;;;;;;;24.00;79.12;100147.19;5107683;28;20398;-66
2022/08/23 08:41:59;;;;;;;9.70;8.70;;;;;;;24.18;78.40;100158.16;5106192;28;20052;-65
2022/08/23 08:44:37;;;;;;;11.05;8.68;;;;;;;24.35;76.63;100163.91;5105992;28;20509;-65
2022/08/23 08:47:44;;;;;;;9.52;7.70;;;;;;;24.51;74.70;100167.94;5106462;28;20032;-66
2022/08/23 08:50:36;;;;;;;9.80;8.70;;;;;;;24.61;74.75;100165.50;5107888;28;20028;-66
2022/08/23 08:53:12;;;;;;;11.05;9.93;;;;;;;24.69;74.22;100162.50;5107223;28;20024;-66
2022/08/23 08:55:43;;;;;;;9.05;8.15;;;;;;;24.78;73.41;100177.53;5105967;28;20040;-65
2022/08/23 08:58:18;;;;;;;9.88;8.18;;;;;;;24.87;73.08;100170.69;5107833;28;20838;-65
2022/08/23 09:00:45;;;;;;;8.82;7.97;;;;;;;24.94;71.80;100174.19;5106208;28;20034;-65
2022/08/23 09:03:14;;;;;;;10.15;7.65;;;;;;;24.97;70.66;100173.72;5105546;28;20092;-66
2022/08/23 09:05:56;;;;;;;13.32;9.18;;;;;;;24.97;69.84;100169.09;5105440;28;20063;-66
2022/08/23 09:08:50;;;;;;;10.82;8.88;;;;;;;25.06;70.16;100178.69;5119480;27;20065;-67
2022/08/23 09:11:46;;;;;;;6.70;6.10;;;;;;;25.19;70.91;100186.72;5127567;27;20533;-66
2022/08/23 09:14:49;;;;;;;8.35;6.95;;;;;;;25.28;70.28;100162.53;5104223;27;20698;-66
2022/08/23 09:17:30;;;;;;;6.50;5.90;;;;;;;25.50;69.56;100177.44;5131939;27;20027;-66
2022/08/23 09:19:59;;;;;;;7.97;7.18;;;;;;;25.59;67.98;100176.00;5131382;27;20541;-67
2022/08/23 09:22:53;;;;;;;9.82;7.60;;;;;;;25.65;67.65;100172.31;5131861;27;20046;-66
2022/08/23 09:25:19;;;;;;;9.57;8.53;;;;;;;25.68;66.16;100169.13;5130115;27;20046;-66
2022/08/23 09:27:45;;;;;;;8.43;7.30;;;;;;;25.66;66.25;100160.28;5130772;27;20023;-67
2022/08/23 09:30:16;;;;;;;7.75;6.97;;;;;;;25.74;66.12;100166.28;5112320;27;20023;-66
2022/08/23 09:32:44;;;;;;;7.60;6.88;;;;;;;25.81;65.80;100163.41;5110897;28;20485;-66
2022/08/23 09:35:12;;;;;;;6.85;6.13;;;;;;;25.83;65.78;100166.75;5110964;28;20043;-66
2022/08/23 09:38:00;;;;;;;9.35;7.65;;;;;;;25.89;65.10;100165.81;5111159;28;20382;-66
2022/08/23 09:40:48;;;;;;;9.48;6.10;;;;;;;25.95;65.48;100159.34;5110830;28;20114;-66
2022/08/23 09:43:24;;;;;;;10.02;7.15;;;;;;;26.06;64.57;100161.31;5110735;28;20023;-66
2022/08/23 09:45:50;;;;;;;7.70;6.68;;;;;;;26.13;64.51;100162.03;5109931;28;20517;-67
2022/08/23 09:48:42;;;;;;;8.70;6.85;;;;;;;26.19;63.04;100166.56;5111003;28;20036;-66
2022/08/23 09:51:21;;;;;;;7.13;6.38;;;;;;;26.23;62.46;100159.50;5110408;28;20039;-66
2022/08/23 09:53:49;;;;;;;8.07;6.35;;;;;;;26.31;61.61;100164.66;5110412;28;20080;-66
2022/08/23 09:56:41;;;;;;;5.85;5.05;;;;;;;26.39;61.98;100161.53;5110928;28;20097;-66
2022/08/23 09:59:37;;;;;;;7.82;6.22;;;;;;;26.48;61.51;100160.91;5108500;28;20085;-66
2022/08/23 10:02:03;;;;;;;8.45;5.85;;;;;;;26.54;59.93;100151.69;5110150;28;20550;-66
2022/08/23 10:04:44;;;;;;;6.00;5.38;;;;;;;26.57;60.02;100150.41;5110674;28;20455;-66
2022/08/23 10:07:35;;;;;;;6.35;4.03;;;;;;;26.66;59.92;100142.63;5110322;28;20039;-65
2022/08/23 10:10:33;;;;;;;8.50;5.88;;;;;;;26.63;59.43;100129.34;5090110;28;20190;-66
2022/08/23 10:12:59;;;;;;;5.97;4.40;;;;;;;26.80;59.18;100141.28;5109471;28;20551;-66
2022/08/23 10:16:02;;;;;;;6.97;5.07;;;;;;;26.84;58.52;100137.78;5111580;27;20494;-65
2022/08/23 10:18:45;;;;;;;4.25;3.60;;;;;;;26.91;57.35;100143.97;5109985;27;20053;-66
2022/08/23 10:21:24;;;;;;;4.55;3.00;;;;;;;26.98;56.28;100144.66;5109827;28;20500;-66
2022/08/23 10:24:13;;;;;;;4.10;2.95;;;;;;;27.03;56.53;100142.03;5105877;28;20085;-65
2022/08/23 10:26:51;;;;;;;5.22;2.55;;;;;;;27.09;55.75;100140.19;5109480;28;20031;-65
2022/08/23 10:29:39;;;;;;;2.85;2.35;;;;;;;27.12;56.62;100140.56;5109598;28;20425;-66
2022/08/23 10:32:14;;;;;;;5.10;4.60;;;;;;;27.21;57.54;100149.25;5111954;27;20508;-66
2022/08/23 10:34:58;;;;;;;6.32;5.72;;;;;;;27.26;56.79;100133.69;5130005;27;20073;-65
2022/08/23 10:37:30;;;;;;;4.95;4.20;;;;;;;27.09;57.48;100138.28;5131059;27;20036;-65
2022/08/23 10:40:24;;;;;;;4.70;4.20;;;;;;;27.00;58.37;100130.66;5122491;27;20604;-65
2022/08/23 10:42:58;;;;;;;5.05;4.13;;;;;;;26.95;56.33;100134.16;5109378;28;20041;-66
2022/08/23 10:45:24;;;;;;;4.95;4.43;;;;;;;26.82;57.53;100131.69;5114588;27;20062;-65
2022/08/23 10:48:08;;;;;;;4.68;4.15;;;;;;;26.74;58.20;100132.06;5108741;28;20023;-66
2022/08/23 10:51:16;;;;;;;4.22;3.25;;;;;;;26.77;57.22;100141.75;5093889;28;20032;-66
2022/08/23 10:53:48;;;;;;;7.10;4.82;;;;;;;26.75;56.82;100135.66;5089291;28;20065;-66
2022/08/23 10:56:18;;;;;;;3.40;3.10;;;;;;;26.77;57.22;100139.84;5108934;28;20447;-66
2022/08/23 10:59:06;;;;;;;3.53;3.22;;;;;;;26.80;56.84;100139.34;5109068;28;20030;-66
2022/08/23 11:01:47;;;;;;;5.07;3.47;;;;;;;26.83;57.43;100138.03;5109474;27;20390;-66
2022/08/23 11:04:43;;;;;;;3.92;3.20;;;;;;;26.83;57.48;100130.63;5124952;27;20478;-66
2022/08/23 11:07:24;;;;;;;7.90;2.65;;;;;;;26.89;57.56;100126.84;5130086;27;20370;-64
2022/08/23 11:10:15;;;;;;;6.25;4.22;;;;;;;26.97;57.15;100137.50;5129545;27;20030;-66
2022/08/23 11:13:11;;;;;;;5.68;3.97;;;;;;;27.09;57.22;100134.69;5130197;27;20023;-66
2022/08/23 11:15:56;;;;;;;4.35;3.95;;;;;;;27.09;56.55;100124.53;5128980;27;20041;-66
2022/08/23 11:18:44;;;;;;;4.63;3.40;;;;;;;27.16;56.84;100122.47;5129388;27;20031;-66
2022/08/23 11:21:47;;;;;;;5.07;4.55;;;;;;;27.20;56.88;100120.03;5128912;27;20379;-66
2022/08/23 11:24:13;;;;;;;6.15;3.80;;;;;;;27.28;57.28;100123.25;5128947;27;20059;-66
2022/08/23 11:26:40;;;;;;;4.85;4.00;;;;;;;27.33;56.46;100126.09;5129175;27;20061;-66
2022/08/23 11:29:05;;;;;;;4.80;4.30;;;;;;;27.36;55.79;100128.38;5128083;27;20453;-66
2022/08/23 11:31:33;;;;;;;5.30;3.45;;;;;;;27.44;56.11;100130.69;5124399;27;20101;-66
2022/08/23 11:34:05;;;;;;;6.22;4.20;;;;;;;27.48;56.01;100134.66;5104551;28;20028;-67
2022/08/23 11:36:33;;;;;;;6.45;4.40;;;;;;;27.49;54.87;100124.44;5107765;28;20494;-66
2022/08/23 11:39:04;;;;;;;4.38;3.72;;;;;;;27.42;55.32;100124.63;5107521;28;20515;-66